createdAt,value
2023-01-17T00:02:05.904Z,97639.00
2023-01-17T00:04:51.361Z,97630.16
2023-01-17T00:07:38.171Z,97629.13
2023-01-17T00:10:09.608Z,97624.13
2023-01-17T00:12:37.848Z,97625.78
2023-01-17T00:15:07.135Z,97627.28
2023-01-17T00:17:35.028Z,97631.13
2023-01-17T00:20:20.430Z,97635.00
2023-01-17T00:23:05.562Z,97629.13
2023-01-17T00:25:55.634Z,97632.13
2023-01-17T00:28:22.719Z,97625.63
2023-01-17T00:30:49.524Z,97628.97
2023-01-17T00:33:16.395Z,97628.16
2023-01-17T00:35:43.245Z,97625.63
2023-01-17T00:38:11.726Z,97623.97
2023-01-17T00:40:41.260Z,97625.13
2023-01-17T00:43:27.849Z,97623.63
2023-01-17T00:46:13.444Z,97628.81
2023-01-17T00:48:59.048Z,97631.97
2023-01-17T00:51:45.042Z,97628.31
2023-01-17T00:54:30.329Z,97631.66
2023-01-17T00:57:17.422Z,97634.00
2023-01-17T01:00:03.366Z,97639.69
2023-01-17T01:02:48.697Z,97634.84
2023-01-17T01:05:34.445Z,97641.50
2023-01-17T01:08:20.317Z,97642.03
2023-01-17T01:11:06.507Z,97634.47
2023-01-17T01:13:53.544Z,97644.00
2023-01-17T01:16:38.794Z,97631.66
2023-01-17T01:19:24.655Z,97644.50
2023-01-17T01:22:10.088Z,97639.00
2023-01-17T01:24:55.149Z,97642.16
2023-01-17T01:27:40.457Z,97646.34
2023-01-17T01:30:28.460Z,97649.03
2023-01-17T01:33:13.916Z,97651.56
2023-01-17T01:35:43.110Z,97650.72
2023-01-17T01:38:11.040Z,97647.69
2023-01-17T01:40:46.645Z,97650.19
2023-01-17T01:43:16.154Z,97647.84
2023-01-17T01:45:49.769Z,97653.53
2023-01-17T01:48:26.121Z,97659.41
2023-01-17T01:50:54.197Z,97653.53
2023-01-17T01:53:22.719Z,97654.06
2023-01-17T01:55:51.800Z,97655.56
2023-01-17T01:58:23.659Z,97650.19
2023-01-17T02:00:53.311Z,97655.22
2023-01-17T02:03:24.215Z,97660.41
2023-01-17T02:05:52.167Z,97661.25
2023-01-17T02:08:21.725Z,97662.75
2023-01-17T02:10:49.861Z,97663.25
2023-01-17T02:13:19.335Z,97659.75
2023-01-17T02:15:56.491Z,97661.09
2023-01-17T02:18:32.926Z,97662.94
2023-01-17T02:21:14.358Z,97658.41
2023-01-17T02:24:26.342Z,97659.22
2023-01-17T02:26:57.949Z,97661.75
2023-01-17T02:30:01.309Z,97652.72
2023-01-17T02:32:38.086Z,97661.44
2023-01-17T02:35:11.150Z,97664.09
2023-01-17T02:37:44.973Z,97664.75
2023-01-17T02:40:15.731Z,97673.31
2023-01-17T02:42:46.951Z,97666.09
2023-01-17T02:45:16.908Z,97671.63
2023-01-17T02:47:46.554Z,97669.47
2023-01-17T02:50:17.904Z,97674.81
2023-01-17T02:53:00.677Z,97674.97
2023-01-17T02:55:38.189Z,97677.63
2023-01-17T02:58:15.707Z,97679.00
2023-01-17T03:00:51.949Z,97681.66
2023-01-17T03:03:28.297Z,97677.63
2023-01-17T03:06:00.702Z,97676.97
2023-01-17T03:08:29.227Z,97683.00
2023-01-17T03:10:57.130Z,97681.16
2023-01-17T03:13:25.149Z,97694.38
2023-01-17T03:15:53.065Z,97689.00
2023-01-17T03:18:20.997Z,97695.38
2023-01-17T03:20:50.253Z,97683.50
2023-01-17T03:23:18.183Z,97692.72
2023-01-17T03:25:46.099Z,97692.50
2023-01-17T03:28:14.020Z,97691.84
2023-01-17T03:30:41.970Z,97696.88
2023-01-17T03:33:10.188Z,97694.03
2023-01-17T03:35:38.090Z,97705.06
2023-01-17T03:38:07.506Z,97701.19
2023-01-17T03:40:35.471Z,97708.06
2023-01-17T03:43:03.338Z,97700.53
2023-01-17T03:45:31.308Z,97709.88
2023-01-17T03:47:59.949Z,97724.25
2023-01-17T03:50:27.886Z,97727.13
2023-01-17T03:52:55.800Z,97725.97
2023-01-17T03:55:25.127Z,97729.31
2023-01-17T03:57:53.059Z,97729.13
2023-01-17T04:00:21.877Z,97724.75
2023-01-17T04:02:49.856Z,97728.78
2023-01-17T04:05:18.200Z,97731.78
2023-01-17T04:07:46.131Z,97727.09
2023-01-17T04:10:14.072Z,97729.97
2023-01-17T04:12:43.606Z,97728.44
2023-01-17T04:15:12.288Z,97727.56
2023-01-17T04:17:40.423Z,97723.72
2023-01-17T04:20:11.195Z,97734.13
2023-01-17T04:22:39.125Z,97727.59
2023-01-17T04:25:07.324Z,97723.91
2023-01-17T04:27:35.212Z,97730.78
2023-01-17T04:30:04.745Z,97733.66
2023-01-17T04:32:32.696Z,97732.13
2023-01-17T04:35:00.595Z,97738.34
2023-01-17T04:37:28.519Z,97733.31
2023-01-17T04:39:56.408Z,97744.03
2023-01-17T04:42:24.291Z,97739.66
2023-01-17T04:44:52.228Z,97742.53
2023-01-17T04:47:21.530Z,97744.50
2023-01-17T04:49:49.434Z,97744.50
2023-01-17T04:52:18.738Z,97746.69
2023-01-17T04:54:48.486Z,97746.19
2023-01-17T04:57:16.561Z,97760.75
2023-01-17T04:59:44.808Z,97764.94
2023-01-17T05:02:12.939Z,97767.94
2023-01-17T05:04:42.284Z,97777.13
2023-01-17T05:07:10.202Z,97785.16
2023-01-17T05:09:38.130Z,97785.16
2023-01-17T05:12:06.304Z,97789.19
2023-01-17T05:14:34.570Z,97803.56
2023-01-17T05:17:03.396Z,97814.09
2023-01-17T05:19:31.303Z,97818.94
2023-01-17T05:22:04.277Z,97823.28
2023-01-17T05:24:32.555Z,97832.78
2023-01-17T05:27:03.832Z,97836.66
2023-01-17T05:29:31.892Z,97859.88
2023-01-17T05:31:59.818Z,97856.00
2023-01-17T05:34:27.703Z,97868.38
2023-01-17T05:36:55.781Z,97886.41
2023-01-17T05:39:26.455Z,97888.25
2023-01-17T05:41:54.535Z,97899.78
2023-01-17T05:44:22.409Z,97900.38
2023-01-17T05:46:50.339Z,97915.59
2023-01-17T05:49:18.215Z,97924.50
2023-01-17T05:51:46.096Z,97936.09
2023-01-17T05:54:14.000Z,97926.97
2023-01-17T05:56:43.295Z,97943.53
2023-01-17T05:59:14.028Z,97956.13
2023-01-17T06:01:42.142Z,97950.13
2023-01-17T06:04:10.043Z,97951.41
2023-01-17T06:06:37.973Z,97942.38
2023-01-17T06:09:05.947Z,97967.75
2023-01-17T06:11:33.851Z,97955.00
2023-01-17T06:14:03.202Z,97977.47
2023-01-17T06:16:31.179Z,97979.28
2023-01-17T06:18:59.072Z,97971.50
2023-01-17T06:21:26.975Z,97980.38
2023-01-17T06:23:56.205Z,97983.28
2023-01-17T06:26:24.195Z,97985.97
2023-01-17T06:28:52.106Z,97989.31
2023-01-17T06:31:21.437Z,97999.94
2023-01-17T06:33:49.369Z,97999.31
2023-01-17T06:36:17.236Z,98008.69
2023-01-17T06:38:45.119Z,98016.78
2023-01-17T06:41:13.034Z,98018.47
2023-01-17T06:43:40.897Z,98026.66
2023-01-17T06:46:08.785Z,98029.84
2023-01-17T06:48:38.076Z,98028.88
2023-01-17T06:51:06.279Z,98030.47
2023-01-17T06:53:34.221Z,98035.75
2023-01-17T06:56:02.262Z,98042.31
2023-01-17T06:58:30.154Z,98043.59
2023-01-17T07:00:58.204Z,98048.94
2023-01-17T07:03:27.441Z,98048.56
2023-01-17T07:05:56.751Z,98056.72
2023-01-17T07:08:24.627Z,98061.09
2023-01-17T07:10:52.569Z,98066.88
2023-01-17T07:13:20.463Z,98075.22
2023-01-17T07:15:48.453Z,98081.34
2023-01-17T07:18:20.584Z,98079.53
2023-01-17T07:20:49.114Z,98081.56
2023-01-17T07:23:19.429Z,98086.53
2023-01-17T07:25:52.682Z,98087.75
2023-01-17T07:28:20.838Z,98091.09
2023-01-17T07:30:48.903Z,98097.91
2023-01-17T07:33:17.247Z,98099.84
2023-01-17T07:35:45.740Z,98105.63
2023-01-17T07:38:16.203Z,98110.97
2023-01-17T07:40:45.707Z,98108.53
2023-01-17T07:43:14.578Z,98104.78
2023-01-17T07:45:43.692Z,98110.72
2023-01-17T07:48:12.268Z,98112.50
2023-01-17T07:50:40.442Z,98119.69
2023-01-17T07:53:08.331Z,98119.22
2023-01-17T07:55:36.366Z,98114.34
2023-01-17T07:58:05.907Z,98117.47
2023-01-17T08:00:33.878Z,98123.41
2023-01-17T08:03:02.330Z,98145.72
2023-01-17T08:05:30.768Z,98155.00
2023-01-17T08:07:58.681Z,98153.50
2023-01-17T08:10:26.621Z,98168.41
2023-01-17T08:12:55.386Z,98176.72
2023-01-17T08:15:26.686Z,98178.69
2023-01-17T08:17:54.594Z,98183.03
2023-01-17T08:20:22.575Z,98185.00
2023-01-17T08:22:50.859Z,98189.06
2023-01-17T08:25:18.800Z,98192.34
2023-01-17T08:27:46.705Z,98189.31
2023-01-17T08:30:15.116Z,98190.06
2023-01-17T08:32:44.402Z,98205.31
2023-01-17T08:35:12.343Z,98205.50
2023-01-17T08:37:40.279Z,98202.22
2023-01-17T08:40:08.914Z,98201.84
2023-01-17T08:42:40.118Z,98202.34
2023-01-17T08:45:09.918Z,98204.91
2023-01-17T08:47:38.419Z,98200.88
2023-01-17T08:50:08.312Z,98209.72
2023-01-17T08:52:36.223Z,98225.31
2023-01-17T08:55:05.864Z,98220.81
2023-01-17T08:57:34.065Z,98231.22
2023-01-17T09:00:01.984Z,98231.91
2023-01-17T09:02:29.975Z,98248.22
2023-01-17T09:04:57.878Z,98250.16
2023-01-17T09:07:27.378Z,98258.56
2023-01-17T09:09:55.499Z,98271.38
2023-01-17T09:12:23.439Z,98267.44
2023-01-17T09:14:51.346Z,98266.41
2023-01-17T09:17:19.230Z,98273.75
2023-01-17T09:19:48.872Z,98275.84
2023-01-17T09:22:16.813Z,98280.06
2023-01-17T09:24:46.119Z,98289.91
2023-01-17T09:27:14.106Z,98282.00
2023-01-17T09:29:42.326Z,98281.00
2023-01-17T09:32:10.332Z,98295.94
2023-01-17T09:34:38.230Z,98296.03
2023-01-17T09:37:07.575Z,98289.75
2023-01-17T09:39:35.515Z,98290.72
2023-01-17T09:42:19.575Z,98288.41
2023-01-17T09:44:49.421Z,98289.47
2023-01-17T09:47:20.752Z,98293.28
2023-01-17T09:49:48.917Z,98292.75
2023-01-17T09:52:21.001Z,98293.84
2023-01-17T09:54:50.280Z,98299.94
2023-01-17T09:57:32.866Z,98302.84
2023-01-17T10:00:07.785Z,98307.06
2023-01-17T10:02:47.708Z,98314.91
2023-01-17T10:05:27.796Z,98309.09
2023-01-17T10:08:08.180Z,98315.03
2023-01-17T10:10:41.937Z,98311.00
2023-01-17T10:13:24.193Z,98314.38
2023-01-17T10:16:01.894Z,98311.53
2023-01-17T10:18:46.556Z,98319.88
2023-01-17T10:21:19.568Z,98308.09
2023-01-17T10:24:13.782Z,98302.47
2023-01-17T10:26:42.151Z,98299.72
2023-01-17T10:29:15.222Z,98302.31
2023-01-17T10:31:46.098Z,98301.16
2023-01-17T10:34:17.948Z,98286.41
2023-01-17T10:36:47.921Z,98297.44
2023-01-17T10:39:19.538Z,98306.00
2023-01-17T10:41:52.084Z,98288.91
2023-01-17T10:44:26.099Z,98290.03
2023-01-17T10:46:56.626Z,98274.97
2023-01-17T10:49:26.098Z,98281.91
2023-01-17T10:52:02.063Z,98279.38
2023-01-17T10:54:42.635Z,98291.25
2023-01-17T10:57:16.147Z,98290.47
2023-01-17T10:59:45.574Z,98279.38
2023-01-17T11:02:20.532Z,98283.97
2023-01-17T11:04:50.157Z,98277.94
2023-01-17T11:07:19.693Z,98278.84
2023-01-17T11:09:49.669Z,98276.28
2023-01-17T11:12:21.575Z,98270.53
2023-01-17T11:15:22.070Z,98276.72
2023-01-17T11:17:53.235Z,98277.47
2023-01-17T11:20:25.144Z,98271.13
2023-01-17T11:23:04.425Z,98281.50
2023-01-17T11:25:35.242Z,98263.84
2023-01-17T11:28:06.191Z,98264.47
2023-01-17T11:30:35.680Z,98263.56
2023-01-17T11:33:06.255Z,98259.88
2023-01-17T11:35:36.490Z,98257.09
2023-01-17T11:38:13.144Z,98266.59
2023-01-17T11:40:42.698Z,98258.44
2023-01-17T11:43:28.648Z,98264.28
2023-01-17T11:46:14.269Z,98267.34
2023-01-17T11:48:42.283Z,98269.44
2023-01-17T11:51:20.471Z,98275.13
2023-01-17T11:53:49.390Z,98266.38
2023-01-17T11:56:23.500Z,98276.91
2023-01-17T11:58:52.203Z,98269.28
2023-01-17T12:01:34.341Z,98278.31
2023-01-17T12:04:16.231Z,98278.69
2023-01-17T12:06:57.664Z,98278.00
2023-01-17T12:09:31.527Z,98275.38
2023-01-17T12:12:25.033Z,98275.06
2023-01-17T12:15:03.277Z,98265.66
2023-01-17T12:17:43.755Z,98260.72
2023-01-17T12:20:16.738Z,98276.19
2023-01-17T12:22:57.991Z,98264.78
2023-01-17T12:25:30.414Z,98262.16
2023-01-17T12:28:11.477Z,98272.13
2023-01-17T12:30:48.008Z,98270.63
2023-01-17T12:33:22.479Z,98278.84
2023-01-17T12:35:53.012Z,98278.44
2023-01-17T12:38:32.608Z,98277.63
2023-01-17T12:41:06.025Z,98282.63
2023-01-17T12:43:36.988Z,98280.25
2023-01-17T12:46:08.722Z,98285.09
2023-01-17T12:48:39.356Z,98290.41
2023-01-17T12:51:10.099Z,98289.41
2023-01-17T12:53:41.924Z,98292.72
2023-01-17T12:56:12.656Z,98292.81
2023-01-17T12:58:42.632Z,98295.97
2023-01-17T13:01:21.234Z,98297.50
2023-01-17T13:04:00.244Z,98308.97
2023-01-17T13:06:43.276Z,98306.31
2023-01-17T13:09:13.657Z,98303.94
2023-01-17T13:11:46.563Z,98304.94
2023-01-17T13:14:14.488Z,98303.75
2023-01-17T13:16:45.596Z,98303.91
2023-01-17T13:19:20.418Z,98308.81
2023-01-17T13:21:49.440Z,98299.88
2023-01-17T13:24:31.176Z,98302.72
2023-01-17T13:27:17.859Z,98313.78
2023-01-17T13:29:56.794Z,98314.13
2023-01-17T13:32:50.224Z,98310.59
2023-01-17T13:35:24.031Z,98310.69
2023-01-17T13:38:28.960Z,98315.63
2023-01-17T13:40:58.504Z,98320.34
2023-01-17T13:43:28.373Z,98327.59
2023-01-17T13:45:57.460Z,98327.97
2023-01-17T13:48:30.462Z,98328.97
2023-01-17T13:51:00.846Z,98338.94
2023-01-17T13:53:56.377Z,98339.06
2023-01-17T13:56:35.094Z,98338.00
2023-01-17T13:59:21.995Z,98346.41
2023-01-17T14:01:54.218Z,98350.25
2023-01-17T14:04:24.004Z,98354.28
2023-01-17T14:07:03.841Z,98366.47
2023-01-17T14:09:40.222Z,98369.22
2023-01-17T14:12:25.908Z,98359.06
2023-01-17T14:14:57.017Z,98360.84
2023-01-17T14:17:49.982Z,98361.00
2023-01-17T14:21:05.295Z,98367.03
2023-01-17T14:23:59.550Z,98369.75
2023-01-17T14:26:33.620Z,98371.03
2023-01-17T14:29:34.771Z,98372.38
2023-01-17T14:32:03.639Z,98366.84
2023-01-17T14:34:31.641Z,98375.81
2023-01-17T14:37:05.586Z,98373.34
2023-01-17T14:39:44.645Z,98374.63
2023-01-17T14:42:15.265Z,98379.44
2023-01-17T14:44:47.216Z,98383.75
2023-01-17T14:47:16.305Z,98387.28
2023-01-17T14:49:44.400Z,98380.72
2023-01-17T14:52:17.409Z,98400.94
2023-01-17T14:54:53.691Z,98400.50
2023-01-17T14:57:28.301Z,98398.31
2023-01-17T15:00:16.384Z,98402.97
2023-01-17T15:02:45.300Z,98410.56
2023-01-17T15:05:15.308Z,98410.81
2023-01-17T15:07:44.460Z,98418.78
2023-01-17T15:10:16.351Z,98414.28
2023-01-17T15:12:47.039Z,98412.16
2023-01-17T15:15:35.402Z,98413.69
2023-01-17T15:18:23.139Z,98419.03
2023-01-17T15:20:54.846Z,98411.47
2023-01-17T15:23:24.191Z,98419.97
2023-01-17T15:25:54.334Z,98413.47
2023-01-17T15:28:22.409Z,98413.47
2023-01-17T15:31:06.468Z,98420.19
2023-01-17T15:33:35.173Z,98414.09
2023-01-17T15:36:05.043Z,98423.25
2023-01-17T15:38:38.782Z,98420.28
2023-01-17T15:41:13.999Z,98434.38
2023-01-17T15:43:42.530Z,98429.84
2023-01-17T15:46:23.008Z,98432.03
2023-01-17T15:48:51.911Z,98431.88
2023-01-17T15:51:34.306Z,98432.16
2023-01-17T15:54:33.848Z,98438.63
2023-01-17T15:57:06.832Z,98434.69
2023-01-17T15:59:45.868Z,98431.03
2023-01-17T16:02:37.864Z,98431.59
2023-01-17T16:05:47.731Z,98438.78
2023-01-17T16:08:25.598Z,98439.50
2023-01-17T16:10:58.160Z,98448.47
2023-01-17T16:13:26.060Z,98449.88
2023-01-17T16:15:54.108Z,98455.97
2023-01-17T16:18:24.129Z,98454.97
2023-01-17T16:20:55.070Z,98456.81
2023-01-17T16:23:22.948Z,98469.84
2023-01-17T16:25:50.843Z,98478.56
2023-01-17T16:28:20.166Z,98478.00
2023-01-17T16:30:48.674Z,98471.25
2023-01-17T16:33:17.084Z,98478.16
2023-01-17T16:35:45.040Z,98475.47
2023-01-17T16:38:15.484Z,98475.47
2023-01-17T16:40:44.979Z,98478.44
2023-01-17T16:43:13.775Z,98465.63
2023-01-17T16:45:44.596Z,98476.44
2023-01-17T16:48:12.650Z,98474.63
2023-01-17T16:50:42.354Z,98474.19
2023-01-17T16:53:10.254Z,98481.09
2023-01-17T16:55:38.165Z,98485.56
2023-01-17T16:58:06.188Z,98493.41
2023-01-17T17:00:34.094Z,98494.72
2023-01-17T17:03:03.402Z,98500.56
2023-01-17T17:05:33.492Z,98501.84
2023-01-17T17:08:02.047Z,98509.28
2023-01-17T17:10:31.461Z,98511.69
2023-01-17T17:13:00.945Z,98518.66
2023-01-17T17:15:30.041Z,98530.88
2023-01-17T17:17:58.002Z,98532.41
2023-01-17T17:20:27.312Z,98536.22
2023-01-17T17:22:55.204Z,98535.25
2023-01-17T17:25:23.123Z,98537.34
2023-01-17T17:27:51.276Z,98547.22
2023-01-17T17:30:19.509Z,98537.00
2023-01-17T17:32:48.221Z,98534.81
2023-01-17T17:35:16.271Z,98549.28
2023-01-17T17:37:45.574Z,98544.56
2023-01-17T17:40:13.810Z,98556.41
2023-01-17T17:42:43.451Z,98549.53
2023-01-17T17:45:12.193Z,98552.19
2023-01-17T17:47:40.117Z,98554.00
2023-01-17T17:50:09.447Z,98557.25
2023-01-17T17:52:38.147Z,98559.88
2023-01-17T17:55:08.446Z,98562.69
2023-01-17T17:57:36.489Z,98569.84
2023-01-17T18:00:05.364Z,98565.72
2023-01-17T18:02:33.243Z,98580.09
2023-01-17T18:05:02.386Z,98588.66
2023-01-17T18:07:32.364Z,98580.34
2023-01-17T18:10:00.397Z,98595.81
2023-01-17T18:12:29.647Z,98595.06
2023-01-17T18:14:57.568Z,98599.84
2023-01-17T18:17:25.523Z,98603.25
2023-01-17T18:19:53.569Z,98616.09
2023-01-17T18:22:21.513Z,98615.34
2023-01-17T18:24:49.439Z,98618.19
2023-01-17T18:27:17.349Z,98622.09
2023-01-17T18:29:46.681Z,98628.03
2023-01-17T18:32:14.547Z,98632.06
2023-01-17T18:34:42.508Z,98635.09
2023-01-17T18:37:10.736Z,98639.31
2023-01-17T18:39:38.642Z,98635.50
2023-01-17T18:42:07.773Z,98638.16
2023-01-17T18:44:35.687Z,98630.81
2023-01-17T18:47:05.647Z,98635.38
2023-01-17T18:49:33.853Z,98639.72
2023-01-17T18:52:02.306Z,98647.59
2023-01-17T18:54:30.350Z,98643.28
2023-01-17T18:56:58.302Z,98640.13
2023-01-17T18:59:26.258Z,98637.84
2023-01-17T19:01:54.291Z,98643.47
2023-01-17T19:04:23.616Z,98635.94
2023-01-17T19:06:51.554Z,98638.09
2023-01-17T19:09:19.589Z,98642.88
2023-01-17T19:11:47.661Z,98646.28
2023-01-17T19:14:15.983Z,98651.94
2023-01-17T19:16:44.352Z,98646.34
2023-01-17T19:19:14.173Z,98652.81
2023-01-17T19:21:43.503Z,98658.41
2023-01-17T19:24:13.027Z,98658.75
2023-01-17T19:26:41.238Z,98662.38
2023-01-17T19:29:09.137Z,98664.25
2023-01-17T19:31:42.606Z,98667.16
2023-01-17T19:34:11.344Z,98678.53
2023-01-17T19:36:39.757Z,98672.50
2023-01-17T19:39:10.590Z,98672.97
2023-01-17T19:41:42.242Z,98670.69
2023-01-17T19:44:11.855Z,98662.31
2023-01-17T19:46:40.166Z,98666.06
2023-01-17T19:49:09.189Z,98671.03
2023-01-17T19:51:37.497Z,98676.13
2023-01-17T19:54:06.812Z,98672.84
2023-01-17T19:56:36.150Z,98675.78
2023-01-17T19:59:04.148Z,98676.13
2023-01-17T20:01:33.580Z,98683.25
2023-01-17T20:04:02.400Z,98686.63
2023-01-17T20:06:32.458Z,98687.75
2023-01-17T20:09:00.527Z,98681.22
2023-01-17T20:11:29.276Z,98680.28
2023-01-17T20:14:00.084Z,98683.00
2023-01-17T20:16:29.397Z,98678.75
2023-01-17T20:18:58.244Z,98680.34
2023-01-17T20:21:27.457Z,98678.69
2023-01-17T20:23:55.880Z,98680.81
2023-01-17T20:26:25.091Z,98680.78
2023-01-17T20:28:53.493Z,98681.44
2023-01-17T20:31:24.292Z,98678.50
2023-01-17T20:33:54.168Z,98681.19
2023-01-17T20:36:24.022Z,98679.41
2023-01-17T20:38:53.336Z,98678.19
2023-01-17T20:41:23.326Z,98668.81
2023-01-17T20:43:53.080Z,98671.16
2023-01-17T20:46:24.033Z,98672.25
2023-01-17T20:48:53.654Z,98671.41
2023-01-17T20:51:22.785Z,98663.88
2023-01-17T20:53:53.175Z,98668.72
2023-01-17T20:56:21.222Z,98661.69
2023-01-17T20:58:51.558Z,98655.72
2023-01-17T21:01:21.303Z,98659.38
2023-01-17T21:03:53.902Z,98657.34
2023-01-17T21:06:23.222Z,98653.16
2023-01-17T21:08:52.201Z,98660.41
2023-01-17T21:11:22.606Z,98666.19
2023-01-17T21:13:51.347Z,98661.53
2023-01-17T21:16:21.182Z,98659.16
2023-01-17T21:18:51.827Z,98666.53
2023-01-17T21:21:21.976Z,98669.59
2023-01-17T21:23:51.306Z,98668.91
2023-01-17T21:26:20.453Z,98670.25
2023-01-17T21:28:49.471Z,98674.22
2023-01-17T21:31:23.046Z,98677.72
2023-01-17T21:33:54.311Z,98680.53
2023-01-17T21:36:24.265Z,98684.50
2023-01-17T21:38:53.093Z,98680.81
2023-01-17T21:41:21.702Z,98689.47
2023-01-17T21:43:50.056Z,98688.59
2023-01-17T21:46:18.051Z,98688.97
2023-01-17T21:48:45.931Z,98698.09
2023-01-17T21:51:15.418Z,98705.47
2023-01-17T21:53:43.358Z,98702.84
2023-01-17T21:56:30.690Z,98703.09
2023-01-17T21:58:59.324Z,98706.47
2023-01-17T22:01:29.002Z,98706.75
2023-01-17T22:03:58.309Z,98710.75
2023-01-17T22:06:29.371Z,98717.50
2023-01-17T22:08:57.358Z,98726.72
2023-01-17T22:11:27.708Z,98720.66
2023-01-17T22:13:58.048Z,98730.06
2023-01-17T22:16:26.969Z,98726.09
2023-01-17T22:18:54.919Z,98729.84
2023-01-17T22:21:24.161Z,98739.63
2023-01-17T22:23:54.705Z,98735.56
2023-01-17T22:26:23.863Z,98746.69
2023-01-17T22:28:51.871Z,98760.09
2023-01-17T22:31:21.454Z,98750.91
2023-01-17T22:33:53.625Z,98760.72
2023-01-17T22:36:21.771Z,98763.75
2023-01-17T22:38:49.702Z,98766.75
2023-01-17T22:41:20.563Z,98770.28
2023-01-17T22:43:50.018Z,98755.03
2023-01-17T22:46:20.025Z,98765.19
2023-01-17T22:48:47.980Z,98773.03
2023-01-17T22:51:17.344Z,98769.50
2023-01-17T22:53:47.165Z,98777.41
2023-01-17T22:56:17.799Z,98784.53
2023-01-17T22:58:48.864Z,98780.28
2023-01-17T23:01:18.294Z,98791.03
2023-01-17T23:03:47.241Z,98788.50
2023-01-17T23:06:17.144Z,98785.13
2023-01-17T23:08:46.327Z,98788.22
2023-01-17T23:11:42.818Z,98784.19
2023-01-17T23:14:15.651Z,98786.91
2023-01-17T23:17:02.964Z,98787.13
2023-01-17T23:19:33.380Z,98792.44
2023-01-17T23:22:19.080Z,98795.75
2023-01-17T23:24:49.787Z,98793.69
2023-01-17T23:27:37.562Z,98796.69
2023-01-17T23:30:10.764Z,98789.34
2023-01-17T23:32:41.243Z,98796.38
2023-01-17T23:35:09.422Z,98798.53
2023-01-17T23:37:54.555Z,98805.78
2023-01-17T23:40:22.525Z,98809.66
2023-01-17T23:43:08.070Z,98804.47
2023-01-17T23:45:37.891Z,98811.75
2023-01-17T23:48:09.627Z,98819.59
2023-01-17T23:50:38.161Z,98814.03
2023-01-17T23:53:08.068Z,98814.28
2023-01-17T23:55:37.394Z,98813.91
2023-01-17T23:58:05.865Z,98809.78
